createdAt,value
2023-05-20T00:01:42.693Z,15.00
2023-05-20T00:04:09.613Z,15.00
2023-05-20T00:06:36.362Z,15.00
2023-05-20T00:09:03.461Z,15.00
2023-05-20T00:11:30.170Z,14.90
2023-05-20T00:13:56.800Z,15.00
2023-05-20T00:16:23.467Z,15.00
2023-05-20T00:18:50.169Z,15.00
2023-05-20T00:21:16.852Z,14.80
2023-05-20T00:23:43.491Z,14.60
2023-05-20T00:26:10.750Z,14.60
2023-05-20T00:28:37.375Z,14.60
2023-05-20T00:31:04.790Z,14.70
2023-05-20T00:33:31.510Z,14.70
2023-05-20T00:35:58.149Z,14.70
2023-05-20T00:38:24.769Z,14.60
2023-05-20T00:40:51.396Z,14.70
2023-05-20T00:43:18.161Z,14.70
2023-05-20T00:45:44.853Z,14.60
2023-05-20T00:48:11.641Z,14.60
2023-05-20T00:50:38.465Z,14.60
2023-05-20T00:53:05.767Z,14.60
2023-05-20T00:55:32.744Z,14.60
2023-05-20T00:57:59.492Z,14.60
2023-05-20T01:00:26.236Z,14.50
2023-05-20T01:02:53.439Z,14.50
2023-05-20T01:05:20.200Z,14.60
2023-05-20T01:07:46.902Z,14.60
2023-05-20T01:10:13.530Z,14.50
2023-05-20T01:12:43.792Z,14.40
2023-05-20T01:15:11.266Z,14.40
2023-05-20T01:17:47.354Z,14.30
2023-05-20T01:20:17.258Z,14.40
2023-05-20T01:23:02.600Z,14.40
2023-05-20T01:25:29.404Z,14.50
2023-05-20T01:28:00.671Z,14.50
2023-05-20T01:30:37.118Z,14.50
2023-05-20T01:33:09.047Z,14.40
2023-05-20T01:35:36.698Z,14.40
2023-05-20T01:38:05.392Z,14.40
2023-05-20T01:40:32.956Z,14.30
2023-05-20T01:42:59.986Z,14.20
2023-05-20T01:45:26.821Z,14.20
2023-05-20T01:47:53.582Z,14.30
2023-05-20T01:50:20.336Z,14.30
2023-05-20T01:52:46.971Z,14.20
2023-05-20T01:55:13.615Z,14.00
2023-05-20T01:57:40.428Z,14.10
2023-05-20T02:00:07.467Z,14.10
2023-05-20T02:02:34.201Z,14.20
2023-05-20T02:05:00.923Z,14.10
2023-05-20T02:07:27.596Z,14.10
2023-05-20T02:09:54.270Z,14.00
2023-05-20T02:12:20.937Z,14.00
2023-05-20T02:14:48.050Z,14.00
2023-05-20T02:17:16.462Z,14.00
2023-05-20T02:19:43.751Z,14.00
2023-05-20T02:22:10.421Z,13.90
2023-05-20T02:24:37.064Z,13.90
2023-05-20T02:27:04.753Z,13.90
2023-05-20T02:29:31.481Z,13.80
2023-05-20T02:31:58.278Z,13.80
2023-05-20T02:34:26.325Z,13.90
2023-05-20T02:36:53.388Z,13.90
2023-05-20T02:39:20.033Z,13.90
2023-05-20T02:41:46.720Z,13.90
2023-05-20T02:44:13.439Z,13.90
2023-05-20T02:46:40.110Z,13.90
2023-05-20T02:49:07.105Z,13.80
2023-05-20T02:51:33.755Z,13.80
2023-05-20T02:54:00.642Z,13.80
2023-05-20T02:56:28.682Z,13.70
2023-05-20T02:58:55.404Z,13.70
2023-05-20T03:01:23.363Z,13.60
2023-05-20T03:03:50.071Z,13.70
2023-05-20T03:06:16.749Z,13.60
2023-05-20T03:08:43.433Z,13.60
2023-05-20T03:11:10.134Z,13.60
2023-05-20T03:13:36.850Z,13.60
2023-05-20T03:16:03.635Z,13.60
2023-05-20T03:18:30.754Z,13.60
2023-05-20T03:20:57.397Z,13.50
2023-05-20T03:23:24.127Z,13.50
2023-05-20T03:25:50.881Z,13.60
2023-05-20T03:28:17.516Z,13.60
2023-05-20T03:30:44.225Z,13.60
2023-05-20T03:33:10.858Z,13.50
2023-05-20T03:35:37.575Z,13.60
2023-05-20T03:38:04.445Z,13.60
2023-05-20T03:40:31.214Z,13.60
2023-05-20T03:42:57.826Z,13.60
2023-05-20T03:45:24.537Z,13.60
2023-05-20T03:47:51.783Z,13.70
2023-05-20T03:50:18.467Z,13.70
2023-05-20T03:52:45.079Z,13.60
2023-05-20T03:55:11.748Z,13.60
2023-05-20T03:57:38.397Z,13.70
2023-05-20T04:00:12.196Z,13.80
2023-05-20T04:02:39.016Z,13.80
2023-05-20T04:05:08.512Z,13.70
2023-05-20T04:07:35.794Z,13.80
2023-05-20T04:10:03.253Z,13.70
2023-05-20T04:12:31.822Z,13.80
2023-05-20T04:14:58.804Z,13.90
2023-05-20T04:17:26.029Z,13.90
2023-05-20T04:19:53.048Z,14.00
2023-05-20T04:22:19.665Z,13.70
2023-05-20T04:24:46.571Z,13.60
2023-05-20T04:27:13.926Z,13.50
2023-05-20T04:29:46.028Z,13.30
2023-05-20T04:32:13.653Z,13.30
2023-05-20T04:34:40.533Z,13.30
2023-05-20T04:37:09.657Z,13.40
2023-05-20T04:39:39.673Z,13.20
2023-05-20T04:42:06.420Z,13.10
2023-05-20T04:44:33.109Z,13.10
2023-05-20T04:46:59.921Z,13.30
2023-05-20T04:49:26.779Z,13.40
2023-05-20T04:51:55.290Z,13.20
2023-05-20T04:54:22.044Z,13.20
2023-05-20T04:56:48.902Z,13.30
2023-05-20T04:59:17.918Z,13.40
2023-05-20T05:01:44.696Z,13.40
2023-05-20T05:04:11.546Z,13.60
2023-05-20T05:06:38.175Z,13.70
2023-05-20T05:09:04.796Z,13.80
2023-05-20T05:11:31.706Z,13.80
2023-05-20T05:13:58.408Z,13.70
2023-05-20T05:16:25.288Z,13.80
2023-05-20T05:18:52.071Z,13.80
2023-05-20T05:21:18.729Z,13.60
2023-05-20T05:23:45.446Z,13.70
2023-05-20T05:26:12.087Z,13.70
2023-05-20T05:28:38.709Z,13.80
2023-05-20T05:31:06.589Z,13.80
2023-05-20T05:33:33.245Z,13.70
2023-05-20T05:36:01.100Z,13.80
2023-05-20T05:38:27.811Z,13.80
2023-05-20T05:40:54.477Z,13.60
2023-05-20T05:43:21.337Z,13.70
2023-05-20T05:45:48.035Z,13.80
2023-05-20T05:48:14.666Z,14.00
2023-05-20T05:50:44.107Z,14.10
2023-05-20T05:53:10.760Z,14.20
2023-05-20T05:55:37.398Z,14.00
2023-05-20T05:58:04.020Z,14.10
2023-05-20T06:00:30.701Z,14.20
2023-05-20T06:02:57.464Z,14.10
2023-05-20T06:05:25.064Z,14.10
2023-05-20T06:07:52.906Z,14.20
2023-05-20T06:10:19.534Z,14.10
2023-05-20T06:12:46.169Z,14.20
2023-05-20T06:15:12.858Z,14.20
2023-05-20T06:17:39.533Z,14.30
2023-05-20T06:20:06.708Z,14.40
2023-05-20T06:22:33.311Z,14.30
2023-05-20T06:25:02.367Z,14.30
2023-05-20T06:27:29.052Z,14.40
2023-05-20T06:29:55.829Z,14.40
2023-05-20T06:32:22.526Z,14.40
2023-05-20T06:34:49.415Z,14.60
2023-05-20T06:37:16.039Z,14.70
2023-05-20T06:39:42.653Z,14.70
2023-05-20T06:42:09.359Z,14.70
2023-05-20T06:44:35.959Z,14.70
2023-05-20T06:47:02.726Z,14.60
2023-05-20T06:49:29.560Z,14.70
2023-05-20T06:51:56.319Z,14.80
2023-05-20T06:54:22.984Z,14.60
2023-05-20T06:56:49.615Z,14.60
2023-05-20T06:59:16.309Z,14.80
2023-05-20T07:01:42.977Z,14.80
2023-05-20T07:04:09.710Z,14.90
2023-05-20T07:06:36.459Z,14.90
2023-05-20T07:09:03.369Z,14.90
2023-05-20T07:11:30.049Z,14.90
2023-05-20T07:13:56.754Z,14.90
2023-05-20T07:16:23.530Z,14.80
2023-05-20T07:18:50.493Z,14.70
2023-05-20T07:21:17.825Z,14.70
2023-05-20T07:23:44.446Z,14.70
2023-05-20T07:26:11.136Z,14.90
2023-05-20T07:28:38.384Z,15.00
2023-05-20T07:31:05.354Z,15.10
2023-05-20T07:33:32.109Z,15.10
2023-05-20T07:35:58.722Z,15.30
2023-05-20T07:38:25.335Z,15.40
2023-05-20T07:40:51.975Z,15.20
2023-05-20T07:43:18.735Z,15.20
2023-05-20T07:45:45.521Z,15.20
2023-05-20T07:48:13.109Z,15.30
2023-05-20T07:50:39.909Z,15.30
2023-05-20T07:53:06.896Z,15.30
2023-05-20T07:55:34.590Z,15.40
2023-05-20T07:58:01.719Z,15.50
2023-05-20T08:00:28.388Z,15.60
2023-05-20T08:02:55.292Z,15.70
2023-05-20T08:05:22.730Z,15.80
2023-05-20T08:07:49.357Z,16.00
2023-05-20T08:10:16.092Z,16.00
2023-05-20T08:12:42.736Z,16.10
2023-05-20T08:15:09.609Z,16.10
2023-05-20T08:17:36.285Z,16.20
2023-05-20T08:20:03.163Z,16.40
2023-05-20T08:22:29.811Z,16.50
2023-05-20T08:24:56.534Z,16.50
2023-05-20T08:27:23.262Z,16.50
2023-05-20T08:29:49.880Z,16.50
2023-05-20T08:32:16.570Z,16.50
2023-05-20T08:34:43.162Z,16.50
2023-05-20T08:37:09.881Z,16.50
2023-05-20T08:39:36.586Z,16.50
2023-05-20T08:42:03.278Z,16.60
2023-05-20T08:44:30.093Z,16.70
2023-05-20T08:46:56.942Z,16.90
2023-05-20T08:49:23.696Z,17.10
2023-05-20T08:51:50.881Z,17.20
2023-05-20T08:54:17.958Z,17.30
2023-05-20T08:56:44.979Z,17.40
2023-05-20T08:59:12.044Z,17.40
2023-05-20T09:01:43.033Z,17.60
2023-05-20T09:04:09.943Z,17.70
2023-05-20T09:06:46.917Z,17.80
2023-05-20T09:09:14.065Z,17.80
2023-05-20T09:11:41.484Z,18.00
2023-05-20T09:14:08.574Z,18.00
2023-05-20T09:16:35.598Z,18.00
2023-05-20T09:19:02.660Z,18.10
2023-05-20T09:21:29.608Z,18.00
2023-05-20T09:23:59.050Z,17.80
2023-05-20T09:26:29.873Z,17.60
2023-05-20T09:28:56.937Z,17.50
2023-05-20T09:31:41.762Z,17.30
2023-05-20T09:34:08.881Z,17.30
2023-05-20T09:36:35.635Z,17.40
2023-05-20T09:39:03.642Z,17.40
2023-05-20T09:41:35.424Z,17.50
2023-05-20T09:44:02.437Z,17.60
2023-05-20T09:46:29.154Z,17.50
2023-05-20T09:48:55.861Z,17.50
2023-05-20T09:51:23.624Z,17.40
2023-05-20T09:53:51.221Z,17.50
2023-05-20T09:56:19.171Z,17.50
2023-05-20T09:58:47.519Z,17.60
2023-05-20T10:01:14.257Z,17.60
2023-05-20T10:03:43.387Z,17.60
2023-05-20T10:06:23.264Z,17.50
2023-05-20T10:08:58.307Z,17.50
2023-05-20T10:11:40.282Z,17.50
2023-05-20T10:14:17.013Z,17.60
2023-05-20T10:16:46.633Z,17.70
2023-05-20T10:19:32.249Z,17.70
2023-05-20T10:22:02.861Z,17.80
2023-05-20T10:24:33.522Z,17.80
2023-05-20T10:27:02.791Z,17.80
2023-05-20T10:29:29.747Z,17.80
2023-05-20T10:31:56.852Z,18.10
2023-05-20T10:34:23.574Z,18.40
2023-05-20T10:36:57.490Z,18.50
2023-05-20T10:39:30.712Z,18.60
2023-05-20T10:42:15.198Z,18.60
2023-05-20T10:44:45.678Z,18.40
2023-05-20T10:49:46.387Z,18.10
2023-05-20T10:52:13.433Z,18.00
2023-05-20T10:54:48.183Z,18.00
2023-05-20T10:57:16.118Z,18.30
2023-05-20T10:59:42.791Z,19.00
2023-05-20T11:02:11.337Z,19.30
2023-05-20T11:04:38.657Z,19.40
2023-05-20T11:07:05.254Z,19.50
2023-05-20T11:09:32.025Z,19.40
2023-05-20T11:12:01.050Z,19.40
2023-05-20T11:14:30.994Z,19.50
2023-05-20T11:17:01.001Z,19.80
2023-05-20T11:19:28.060Z,20.20
2023-05-20T11:21:54.852Z,20.50
2023-05-20T11:24:26.459Z,20.50
2023-05-20T11:26:56.226Z,20.50
2023-05-20T11:29:23.214Z,20.60
2023-05-20T11:31:51.123Z,20.40
2023-05-20T11:34:23.367Z,20.40
2023-05-20T11:36:58.942Z,20.30
2023-05-20T11:39:27.518Z,20.40
2023-05-20T11:41:54.292Z,20.40
2023-05-20T11:44:21.193Z,20.70
2023-05-20T11:46:48.350Z,20.90
2023-05-20T11:49:15.620Z,20.90
2023-05-20T11:51:43.236Z,20.80
2023-05-20T11:54:10.602Z,20.60
2023-05-20T11:56:37.686Z,20.90
2023-05-20T11:59:05.134Z,21.30
2023-05-20T12:01:34.051Z,21.70
2023-05-20T12:04:00.898Z,22.10
2023-05-20T12:06:27.732Z,22.00
2023-05-20T12:08:54.367Z,22.20
2023-05-20T12:11:21.841Z,22.30
2023-05-20T12:13:48.640Z,22.20
2023-05-20T12:16:15.507Z,22.10
2023-05-20T12:18:42.363Z,21.80
2023-05-20T12:21:09.135Z,21.50
2023-05-20T12:23:35.824Z,21.30
2023-05-20T12:26:05.731Z,21.10
2023-05-20T12:28:33.234Z,21.50
2023-05-20T12:30:59.981Z,21.90
2023-05-20T12:35:54.563Z,22.00
2023-05-20T12:38:21.224Z,22.20
2023-05-20T12:40:47.948Z,22.30
2023-05-20T12:43:14.640Z,22.50
2023-05-20T12:45:41.320Z,22.70
2023-05-20T12:48:08.141Z,22.70
2023-05-20T12:50:35.281Z,22.70
2023-05-20T12:53:02.159Z,22.60
2023-05-20T12:55:28.926Z,22.60
2023-05-20T12:57:56.259Z,22.40
2023-05-20T13:00:22.989Z,22.30
2023-05-20T13:02:49.704Z,22.20
2023-05-20T13:05:16.392Z,22.40
2023-05-20T13:07:43.039Z,22.60
2023-05-20T13:10:11.226Z,22.70
2023-05-20T13:12:38.261Z,22.70
2023-05-20T13:15:05.196Z,22.70
2023-05-20T13:17:32.154Z,22.50
2023-05-20T13:19:59.250Z,22.40
2023-05-20T13:22:25.888Z,22.50
2023-05-20T13:24:52.507Z,22.60
2023-05-20T13:27:19.178Z,22.60
2023-05-20T13:29:46.069Z,22.50
2023-05-20T13:32:12.734Z,22.60
2023-05-20T13:34:39.439Z,22.70
2023-05-20T13:37:06.618Z,22.70
2023-05-20T13:39:33.421Z,22.90
2023-05-20T13:42:00.289Z,22.80
2023-05-20T13:44:26.919Z,22.90
2023-05-20T13:46:53.734Z,22.90
2023-05-20T13:49:20.978Z,22.80
2023-05-20T13:51:47.603Z,22.90
2023-05-20T13:54:14.268Z,22.90
2023-05-20T13:56:41.270Z,22.80
2023-05-20T13:59:07.903Z,22.90
2023-05-20T14:01:34.604Z,22.80
2023-05-20T14:04:01.557Z,22.90
2023-05-20T14:06:29.420Z,22.90
2023-05-20T14:08:56.819Z,22.90
2023-05-20T14:11:23.533Z,22.90
2023-05-20T14:13:50.188Z,23.10
2023-05-20T14:16:17.007Z,23.10
2023-05-20T14:18:43.796Z,23.10
2023-05-20T14:21:11.398Z,23.00
2023-05-20T14:23:38.158Z,23.00
2023-05-20T14:26:04.831Z,23.00
2023-05-20T14:28:31.429Z,23.00
2023-05-20T14:30:58.037Z,23.00
2023-05-20T14:33:24.658Z,23.10
2023-05-20T14:35:51.292Z,23.40
2023-05-20T14:38:18.757Z,23.60
2023-05-20T14:40:45.490Z,23.30
2023-05-20T14:43:12.128Z,23.30
2023-05-20T14:45:38.925Z,23.60
2023-05-20T14:48:06.847Z,23.70
2023-05-20T14:50:33.689Z,23.80
2023-05-20T14:53:00.507Z,23.60
2023-05-20T14:55:27.135Z,23.60
2023-05-20T14:57:53.820Z,23.90
2023-05-20T15:00:20.421Z,24.00
2023-05-20T15:02:47.163Z,24.00
2023-05-20T15:05:13.993Z,24.20
2023-05-20T15:07:40.857Z,24.30
2023-05-20T15:10:07.840Z,23.90
2023-05-20T15:12:34.894Z,23.80
2023-05-20T15:15:01.497Z,23.90
2023-05-20T15:17:28.170Z,24.10
2023-05-20T15:19:54.959Z,24.30
2023-05-20T15:22:21.603Z,24.60
2023-05-20T15:24:48.216Z,25.50
2023-05-20T15:27:14.949Z,25.90
2023-05-20T15:29:41.572Z,26.30
2023-05-20T15:32:08.261Z,27.00
2023-05-20T15:34:34.954Z,27.80
2023-05-20T15:37:01.619Z,28.00
2023-05-20T15:39:28.406Z,28.00
2023-05-20T15:41:56.291Z,27.30
2023-05-20T15:44:22.942Z,26.70
2023-05-20T15:46:49.595Z,26.30
2023-05-20T15:49:16.342Z,25.70
2023-05-20T15:52:11.838Z,25.40
2023-05-20T15:54:29.719Z,25.10
2023-05-20T15:56:56.628Z,24.60
2023-05-20T15:59:23.302Z,24.30
2023-05-20T16:01:49.939Z,24.10
2023-05-20T16:04:16.776Z,24.00
2023-05-20T16:06:43.452Z,23.80
2023-05-20T16:09:10.061Z,23.60
2023-05-20T16:11:36.701Z,23.30
2023-05-20T16:14:03.344Z,23.20
2023-05-20T16:16:29.998Z,22.80
2023-05-20T16:18:56.698Z,22.70
2023-05-20T16:21:24.989Z,22.60
2023-05-20T16:23:52.804Z,22.60
2023-05-20T16:26:19.473Z,22.60
2023-05-20T16:28:47.038Z,22.40
2023-05-20T16:31:13.700Z,22.20
2023-05-20T16:33:40.456Z,22.10
2023-05-20T16:36:07.147Z,22.20
2023-05-20T16:38:34.578Z,22.20
2023-05-20T16:41:01.767Z,22.20
2023-05-20T16:43:28.453Z,22.10
2023-05-20T16:45:55.141Z,22.00
2023-05-20T16:48:21.830Z,21.70
2023-05-20T16:50:48.456Z,21.60
2023-05-20T16:53:16.430Z,21.60
2023-05-20T16:55:43.366Z,21.50
2023-05-20T16:58:10.134Z,21.40
2023-05-20T17:00:36.817Z,21.30
2023-05-20T17:03:03.918Z,21.30
2023-05-20T17:05:30.685Z,21.10
2023-05-20T17:07:59.992Z,21.10
2023-05-20T17:10:28.601Z,20.90
2023-05-20T17:12:55.378Z,20.90
2023-05-20T17:15:23.243Z,20.90
2023-05-20T17:17:50.144Z,20.90
2023-05-20T17:20:16.958Z,20.90
2023-05-20T17:22:43.674Z,20.90
2023-05-20T17:25:10.785Z,20.90
2023-05-20T17:27:37.606Z,20.80
2023-05-20T17:30:04.468Z,20.70
2023-05-20T17:32:31.231Z,20.70
2023-05-20T17:34:57.912Z,20.70
2023-05-20T17:37:24.544Z,20.60
2023-05-20T17:39:51.185Z,20.60
2023-05-20T17:42:17.786Z,20.50
2023-05-20T17:44:44.424Z,20.50
2023-05-20T17:47:11.049Z,20.40
2023-05-20T17:49:37.741Z,20.40
2023-05-20T17:52:04.571Z,20.40
2023-05-20T17:54:31.223Z,20.50
2023-05-20T17:56:57.887Z,20.50
2023-05-20T17:59:24.540Z,20.50
2023-05-20T18:01:51.364Z,20.50
2023-05-20T18:04:18.451Z,20.40
2023-05-20T18:06:45.213Z,20.40
2023-05-20T18:09:12.320Z,20.40
2023-05-20T18:11:39.137Z,20.40
2023-05-20T18:14:05.941Z,20.40
2023-05-20T18:16:32.759Z,20.40
2023-05-20T18:18:59.527Z,20.30
2023-05-20T18:21:26.510Z,20.30
2023-05-20T18:23:53.359Z,20.30
2023-05-20T18:26:20.144Z,20.30
2023-05-20T18:28:47.001Z,20.20
2023-05-20T18:31:13.719Z,20.20
2023-05-20T18:33:40.980Z,20.20
2023-05-20T18:36:07.756Z,20.20
2023-05-20T18:38:34.405Z,20.10
2023-05-20T18:41:01.473Z,20.10
2023-05-20T18:43:28.131Z,20.10
2023-05-20T18:45:54.871Z,20.10
2023-05-20T18:48:26.509Z,20.00
2023-05-20T18:50:53.681Z,20.00
2023-05-20T18:53:20.298Z,19.90
2023-05-20T18:55:47.642Z,19.90
2023-05-20T18:58:14.611Z,19.90
2023-05-20T19:00:41.737Z,19.80
2023-05-20T19:03:08.516Z,19.80
2023-05-20T19:05:35.611Z,19.80
2023-05-20T19:08:04.498Z,19.80
2023-05-20T19:10:31.665Z,19.80
2023-05-20T19:12:58.320Z,19.80
2023-05-20T19:15:24.932Z,19.80
2023-05-20T19:17:51.673Z,19.80
2023-05-20T19:20:18.312Z,19.80
2023-05-20T19:22:45.020Z,19.80
2023-05-20T19:25:11.656Z,19.80
2023-05-20T19:27:38.461Z,19.80
2023-05-20T19:30:05.500Z,19.70
2023-05-20T19:32:32.221Z,19.70
2023-05-20T19:34:58.894Z,19.70
2023-05-20T19:37:25.527Z,19.70
2023-05-20T19:39:52.226Z,19.70
2023-05-20T19:42:18.916Z,19.70
2023-05-20T19:44:46.649Z,19.70
2023-05-20T19:47:13.389Z,19.70
2023-05-20T19:49:40.182Z,19.70
2023-05-20T19:52:07.185Z,19.70
2023-05-20T19:54:33.962Z,19.70
2023-05-20T19:57:00.772Z,19.70
2023-05-20T19:59:27.452Z,19.60
2023-05-20T20:01:54.235Z,19.70
2023-05-20T20:04:21.240Z,19.60
2023-05-20T20:06:48.171Z,19.50
2023-05-20T20:09:15.224Z,19.50
2023-05-20T20:11:43.262Z,19.50
2023-05-20T20:14:10.119Z,19.50
2023-05-20T20:16:37.103Z,19.50
2023-05-20T20:19:05.043Z,19.50
2023-05-20T20:21:31.781Z,19.50
2023-05-20T20:23:58.490Z,19.40
2023-05-20T20:26:25.926Z,19.50
2023-05-20T20:28:52.742Z,19.50
2023-05-20T20:31:19.473Z,19.50
2023-05-20T20:33:47.319Z,19.50
2023-05-20T20:36:14.197Z,19.50
2023-05-20T20:38:46.611Z,19.50
2023-05-20T20:41:16.011Z,19.50
2023-05-20T20:43:44.803Z,19.50
2023-05-20T20:46:14.744Z,19.40
2023-05-20T20:48:45.653Z,19.40
2023-05-20T20:51:16.389Z,19.40
2023-05-20T20:53:43.368Z,19.40
2023-05-20T20:56:10.002Z,19.40
2023-05-20T20:58:37.814Z,19.30
2023-05-20T21:01:09.804Z,19.30
2023-05-20T21:03:39.923Z,19.30
2023-05-20T21:06:07.481Z,19.30
2023-05-20T21:08:34.162Z,19.30
2023-05-20T21:11:00.784Z,19.20
2023-05-20T21:13:27.869Z,19.20
2023-05-20T21:15:54.570Z,19.20
2023-05-20T21:18:24.398Z,19.10
2023-05-20T21:20:51.659Z,19.10
2023-05-20T21:23:19.040Z,19.10
2023-05-20T21:25:45.741Z,19.00
2023-05-20T21:28:12.384Z,19.00
2023-05-20T21:30:39.026Z,18.90
2023-05-20T21:33:05.876Z,19.00
2023-05-20T21:35:32.549Z,18.90
2023-05-20T21:37:59.225Z,18.90
2023-05-20T21:40:25.991Z,18.90
2023-05-20T21:42:52.606Z,18.80
2023-05-20T21:45:19.296Z,18.80
2023-05-20T21:47:46.348Z,18.90
2023-05-20T21:50:13.245Z,18.80
2023-05-20T21:52:40.014Z,18.80
2023-05-20T21:55:10.555Z,18.60
2023-05-20T21:57:37.454Z,18.70
2023-05-20T22:00:11.396Z,18.70
2023-05-20T22:02:38.189Z,18.70
2023-05-20T22:05:05.253Z,18.60
2023-05-20T22:07:33.000Z,18.50
2023-05-20T22:10:00.662Z,18.60
2023-05-20T22:12:27.565Z,18.60
2023-05-20T22:14:54.363Z,18.60
2023-05-20T22:17:21.517Z,18.60
2023-05-20T22:19:48.259Z,18.50
2023-05-20T22:22:14.893Z,18.50
2023-05-20T22:24:41.590Z,18.50
2023-05-20T22:27:08.195Z,18.50
2023-05-20T22:29:35.208Z,18.50
2023-05-20T22:32:01.988Z,18.50
2023-05-20T22:34:28.923Z,18.40
2023-05-20T22:36:55.521Z,18.40
2023-05-20T22:39:22.124Z,18.40
2023-05-20T22:41:48.855Z,18.40
2023-05-20T22:44:15.568Z,18.40
2023-05-20T22:46:42.176Z,18.40
2023-05-20T22:49:10.296Z,18.40
2023-05-20T22:51:38.753Z,18.40
2023-05-20T22:54:06.895Z,18.40
2023-05-20T22:56:34.228Z,18.30
2023-05-20T22:59:00.987Z,18.40
2023-05-20T23:01:27.853Z,18.30
2023-05-20T23:03:54.682Z,18.30
2023-05-20T23:06:22.696Z,18.30
2023-05-20T23:08:49.593Z,18.40
2023-05-20T23:11:16.426Z,18.30
2023-05-20T23:13:43.147Z,18.30
2023-05-20T23:16:10.339Z,18.30
2023-05-20T23:18:37.090Z,18.30
2023-05-20T23:21:04.177Z,18.30
2023-05-20T23:23:32.094Z,18.30
2023-05-20T23:25:59.244Z,18.30
2023-05-20T23:28:26.389Z,18.30
2023-05-20T23:30:53.162Z,18.20
2023-05-20T23:33:24.837Z,18.20
2023-05-20T23:35:52.428Z,18.20
2023-05-20T23:38:19.112Z,18.20
2023-05-20T23:40:45.767Z,18.20
2023-05-20T23:43:12.378Z,18.30
2023-05-20T23:45:39.057Z,18.30
2023-05-20T23:48:07.050Z,18.20
2023-05-20T23:50:33.812Z,18.20
2023-05-20T23:53:02.417Z,18.20
2023-05-20T23:55:29.048Z,18.20
2023-05-20T23:57:55.858Z,18.10
